Carthagena, Ohio
Current Conditions -  °F | °C
As of 10:14 AM on Wednesday 22 Oct 2014 (Local Time) from KAXV Reporting Station
Overcast Overcast  
Wind Chill: 40°   Ceiling: 2300
Heat Index: 45°   Visibility: 10mi
Dew Point: 41°   Wind: 8mph
Humidity: 87%   Direction: 10°N
Pressure: 30.31"   Gusts: NA
Location:  40.5555°N, 84.6061°W
Report Text: KAXV 221414Z AUTO 01007KT 10SM OVC023 07/05 A3031 RMK AO2
Loading
Personal Weather Stations






























Interactive Weather Map
Tropical Storm Tracking
New forecast layout! Learn more

10-Day Weather Forecast

Advertisements
Track Severe Weather on mobile